Aérodrome :
LOGIN :

S'inscrire | Disclaimer

   EN    FR    IT 

 










Légende :    VFR   VFR Marginal   IFR   IFR Intensif   IFR Très Intensif
Visi : 
Plafond : 
>= 8 km
>= 3000ft
5 à 8 km
1000 à 3000 ft
1500m à 5 km
500 à 1000 ft
800 à 1500m
200 à 500 ft
< 800m
< 200 ft
Symboles :   Orages  Brouillard  Fortes neiges  Fortes précipitations  Vent > 20 kt
SIGMETs :   Divers  Orages  Givrage  Turbulence  Onde Orograph.  Cendres Volcan.







- Altitude de l'aérodrome : 1585 ft
- Code IATA : SIR


LSGS - Sion

DERNIER METAR :
  • 171520Z 25014KT 9999 FEW100 29/17 Q1017

METARs EXPIRÉS :
  • 171450Z 25010KT 220V290 9999 FEW100 29/16 Q1017
  • 171420Z 26011KT 230V290 9999 FEW100 29/16 Q1017
  • 171350Z 26011KT 9999 FEW100 29/16 Q1018
  • 171320Z 26011KT 240V300 9999 FEW100 29/15 Q1018
  • 171250Z 25010KT 9999 FEW100 28/16 Q1018

TAF TAF LSGS
Valide du 17 à 15h jusqu'au 18 à 00h UTC


171425Z 1715/1724 25015KT 9999 FEW100
BECMG 1718/1720 VRB03KT CAVOK
Pas de NOTAMs connus pour ce terrain.



MET'MAP, la Météo Aéronautique d'un coup d'oeil ! - Copyright ORBIFLY Décembre 2007 - Disclaimer

ORBIFLY MET'MAP TEAM :

Programmation & Développement : Alexandra Zaïnal
Conception & Développement : Baudouin d'Aumeries
Co-Programmation & Développement : Marc-Olivier Méhu
Soutien technique & logistique : Manuel Goepfert

Contact : metmap@orbifly.com




SOURCES & CREDITS :

   NOAA